Time;durP1;ratioP1;P1;durP2;ratioP2;P2;SDS_P1;SDS_P2;PMS_P1;PMS_P2;Temp;Humidity;BMP_temperature;BMP_pressure;BME280_temperature;BME280_humidity;BME280_pressure;Samples;Min_cycle;Max_cycle;Signal;HPM_P1;HPM_P2
2023/08/30 00:01:42;;;;;;;9.40;9.10;;;14.20;99.90;;;;;;5040545;28;20286;-78
2023/08/30 00:04:09;;;;;;;9.40;9.10;;;14.20;99.90;;;;;;5041567;28;20246;-76
2023/08/30 00:06:37;;;;;;;9.40;9.10;;;14.10;99.90;;;;;;5046722;28;20235;-76
2023/08/30 00:09:04;;;;;;;9.47;9.17;;;14.10;99.90;;;;;;5046260;28;20233;-77
2023/08/30 00:11:32;;;;;;;9.43;9.13;;;14.10;99.90;;;;;;5042938;28;20232;-77
2023/08/30 00:14:05;;;;;;;9.40;9.10;;;14.00;99.90;;;;;;5041029;28;20223;-76
2023/08/30 00:16:33;;;;;;;9.40;9.10;;;14.00;99.90;;;;;;5042634;28;20266;-77
2023/08/30 00:19:00;;;;;;;9.38;9.07;;;14.00;99.90;;;;;;5041815;28;20253;-78
2023/08/30 00:21:28;;;;;;;9.17;8.87;;;13.90;99.90;;;;;;5041683;28;20234;-77
2023/08/30 00:23:56;;;;;;;9.33;9.03;;;13.90;99.90;;;;;;5041905;28;20236;-77
2023/08/30 00:26:23;;;;;;;9.10;8.80;;;13.90;99.90;;;;;;5043337;28;20242;-77
2023/08/30 00:28:50;;;;;;;8.70;8.50;;;13.80;99.90;;;;;;5042338;28;20228;-77
2023/08/30 00:31:17;;;;;;;9.27;8.97;;;13.80;99.90;;;;;;5040622;28;20235;-76
2023/08/30 00:33:45;;;;;;;8.90;8.65;;;13.80;99.90;;;;;;5040849;28;20738;-77
2023/08/30 00:36:12;;;;;;;9.07;8.77;;;13.80;99.90;;;;;;5040418;28;20234;-76
2023/08/30 00:38:39;;;;;;;9.07;8.77;;;13.70;99.90;;;;;;5040051;28;20240;-78
2023/08/30 00:41:07;;;;;;;9.67;9.37;;;13.70;99.90;;;;;;5034112;28;20236;-78
2023/08/30 00:43:34;;;;;;;9.80;9.50;;;13.70;99.90;;;;;;5016047;28;20231;-78
2023/08/30 00:46:01;;;;;;;9.60;9.30;;;13.70;99.90;;;;;;5042114;28;20246;-78
2023/08/30 00:48:29;;;;;;;9.77;9.47;;;13.60;99.90;;;;;;5036251;28;20234;-76
2023/08/30 00:50:56;;;;;;;9.67;9.37;;;13.60;99.90;;;;;;5036681;28;20228;-76
2023/08/30 00:53:23;;;;;;;9.60;9.30;;;13.60;99.90;;;;;;5044793;28;20232;-75
2023/08/30 00:55:50;;;;;;;9.73;9.43;;;13.60;99.90;;;;;;5048682;28;20240;-76
2023/08/30 00:58:19;;;;;;;9.73;9.43;;;13.50;99.90;;;;;;5041773;28;20298;-75
2023/08/30 01:00:47;;;;;;;9.33;9.03;;;13.50;99.90;;;;;;5040348;28;20395;-76
2023/08/30 01:03:14;;;;;;;9.60;9.30;;;13.40;99.90;;;;;;5054512;28;20231;-76
2023/08/30 01:05:41;;;;;;;9.60;9.30;;;13.40;99.90;;;;;;5039448;28;20239;-76
2023/08/30 01:08:10;;;;;;;9.70;9.40;;;13.40;99.90;;;;;;5042610;28;20318;-76
2023/08/30 01:10:52;;;;;;;9.83;9.53;;;13.30;99.90;;;;;;5037346;28;20235;-75
2023/08/30 01:13:21;;;;;;;9.80;9.50;;;13.30;99.90;;;;;;5046977;28;20207;-76
2023/08/30 01:15:49;;;;;;;9.57;9.27;;;13.30;99.90;;;;;;5037406;28;20231;-76
2023/08/30 01:18:19;;;;;;;9.80;9.50;;;13.30;99.90;;;;;;5036684;28;20246;-76
2023/08/30 01:20:47;;;;;;;9.80;9.50;;;13.30;99.90;;;;;;5045397;28;20227;-75
2023/08/30 01:23:28;;;;;;;9.83;9.53;;;13.20;99.90;;;;;;5038925;28;20219;-76
2023/08/30 01:26:13;;;;;;;9.80;9.50;;;13.30;99.90;;;;;;5037465;28;20235;-76
2023/08/30 01:28:41;;;;;;;9.33;9.03;;;13.20;99.90;;;;;;5036555;28;20245;-76
2023/08/30 01:31:10;;;;;;;9.50;9.20;;;13.20;99.90;;;;;;5037349;28;20223;-76
2023/08/30 01:33:38;;;;;;;9.37;9.07;;;13.20;99.90;;;;;;5047666;28;20227;-76
2023/08/30 01:36:07;;;;;;;9.60;9.30;;;13.30;99.90;;;;;;5055601;28;20230;-76
2023/08/30 01:38:34;;;;;;;9.23;8.93;;;13.20;99.90;;;;;;5049910;28;20230;-76
2023/08/30 01:41:02;;;;;;;8.90;8.60;;;13.20;99.90;;;;;;5035737;28;20247;-76
2023/08/30 01:43:31;;;;;;;9.10;8.80;;;13.20;99.90;;;;;;5035840;28;20234;-76
2023/08/30 01:46:02;;;;;;;9.10;8.80;;;13.20;99.90;;;;;;5036309;28;20231;-77
2023/08/30 01:48:30;;;;;;;8.70;8.50;;;13.30;99.90;;;;;;5045156;28;20243;-76
2023/08/30 01:51:00;;;;;;;8.90;8.60;;;13.30;99.90;;;;;;5035958;28;20249;-76
2023/08/30 01:53:29;;;;;;;9.47;9.17;;;13.20;99.90;;;;;;5035863;28;20223;-77
2023/08/30 01:55:56;;;;;;;9.60;9.30;;;13.20;99.90;;;;;;5036045;28;20238;-76
2023/08/30 01:58:23;;;;;;;9.73;9.43;;;13.20;99.90;;;;;;5036130;28;20249;-77
2023/08/30 02:00:50;;;;;;;9.53;9.23;;;13.20;99.90;;;;;;5039331;28;20243;-76
2023/08/30 02:03:18;;;;;;;9.20;8.90;;;13.20;99.90;;;;;;5039091;28;20224;-77
2023/08/30 02:06:04;;;;;;;9.43;9.13;;;13.20;99.90;;;;;;5039669;28;20227;-77
2023/08/30 02:08:39;;;;;;;9.20;8.90;;;13.20;99.90;;;;;;5040054;28;20319;-77
2023/08/30 02:11:13;;;;;;;9.23;8.93;;;13.20;99.90;;;;;;5039315;28;20313;-77
2023/08/30 02:13:42;;;;;;;9.20;8.90;;;13.20;99.90;;;;;;5039418;28;20229;-76
2023/08/30 02:16:10;;;;;;;9.20;8.90;;;13.20;99.90;;;;;;5039117;28;20282;-77
2023/08/30 02:18:39;;;;;;;9.27;8.97;;;13.20;99.90;;;;;;5039093;28;20235;-77
2023/08/30 02:21:06;;;;;;;9.60;9.30;;;13.20;99.90;;;;;;5039059;28;20238;-77
2023/08/30 02:23:33;;;;;;;9.40;9.10;;;13.20;99.90;;;;;;5039079;28;20238;-77
2023/08/30 02:26:00;;;;;;;9.10;8.80;;;13.30;99.90;;;;;;5039398;28;20227;-77
2023/08/30 02:28:27;;;;;;;9.20;8.90;;;13.20;99.90;;;;;;5047388;28;20227;-76
2023/08/30 02:30:54;;;;;;;9.20;8.90;;;13.30;99.90;;;;;;5046160;28;20245;-76
2023/08/30 02:33:22;;;;;;;9.23;8.93;;;13.30;99.90;;;;;;5059087;28;20242;-76
2023/08/30 02:35:50;;;;;;;9.13;8.83;;;13.30;99.90;;;;;;5058989;28;20230;-76
2023/08/30 02:38:17;;;;;;;9.20;8.90;;;13.30;99.90;;;;;;5059167;28;20242;-77
2023/08/30 02:40:44;;;;;;;9.33;9.03;;;13.20;99.90;;;;;;5062194;28;20215;-76
2023/08/30 02:43:11;;;;;;;9.30;9.00;;;13.20;99.90;;;;;;5064430;28;20242;-77
2023/08/30 02:45:38;;;;;;;9.13;8.83;;;13.20;99.90;;;;;;5059065;28;20231;-77
2023/08/30 02:48:06;;;;;;;9.00;8.70;;;13.20;99.90;;;;;;5058489;28;20302;-76
2023/08/30 02:50:33;;;;;;;9.03;8.73;;;13.20;99.90;;;;;;5058282;28;20723;-76
2023/08/30 02:53:02;;;;;;;9.20;8.90;;;13.20;99.90;;;;;;5058214;28;20222;-76
2023/08/30 02:55:29;;;;;;;9.10;8.80;;;13.10;99.90;;;;;;5058964;28;20227;-77
2023/08/30 02:57:56;;;;;;;9.23;8.93;;;13.10;99.90;;;;;;5058772;28;20303;-77
2023/08/30 03:00:22;;;;;;;9.47;9.17;;;13.00;99.90;;;;;;5058137;28;20263;-78
2023/08/30 03:02:50;;;;;;;9.50;9.20;;;13.00;99.90;;;;;;5058113;28;20226;-77
2023/08/30 03:05:17;;;;;;;9.40;9.10;;;13.00;99.90;;;;;;5059057;28;20246;-77
2023/08/30 03:07:44;;;;;;;9.47;9.17;;;13.00;99.90;;;;;;5058812;28;20243;-77
2023/08/30 03:10:13;;;;;;;9.40;9.10;;;13.00;99.90;;;;;;5058988;28;20231;-77
2023/08/30 03:12:40;;;;;;;9.30;9.00;;;13.00;99.90;;;;;;5058972;28;20258;-77
2023/08/30 03:15:08;;;;;;;9.50;9.20;;;13.10;99.90;;;;;;5058502;28;20616;-76
2023/08/30 03:17:36;;;;;;;9.50;9.20;;;13.10;99.90;;;;;;5058227;28;20341;-77
2023/08/30 03:20:05;;;;;;;9.40;9.10;;;13.10;99.90;;;;;;5057855;28;20273;-77
2023/08/30 03:22:32;;;;;;;9.37;9.07;;;13.10;99.90;;;;;;5058278;28;20253;-77
2023/08/30 03:25:02;;;;;;;9.50;9.20;;;13.10;99.90;;;;;;5051038;28;20240;-77
2023/08/30 03:27:31;;;;;;;9.40;9.10;;;13.10;99.90;;;;;;5025890;28;20239;-77
2023/08/30 03:29:58;;;;;;;9.50;9.20;;;13.10;99.90;;;;;;5057672;28;20233;-77
2023/08/30 03:32:25;;;;;;;9.50;9.20;;;13.10;99.90;;;;;;5034554;28;20234;-76
2023/08/30 03:34:52;;;;;;;9.60;9.30;;;13.10;99.90;;;;;;5046975;28;20262;-76
2023/08/30 03:37:19;;;;;;;9.47;9.17;;;13.00;99.90;;;;;;5044146;28;20247;-77
2023/08/30 03:39:46;;;;;;;9.60;9.30;;;13.00;99.90;;;;;;5043035;28;20330;-77
2023/08/30 03:42:13;;;;;;;9.40;9.10;;;12.90;99.90;;;;;;5040700;28;20219;-76
2023/08/30 03:44:41;;;;;;;9.47;9.17;;;12.90;99.90;;;;;;5041028;28;20232;-78
2023/08/30 03:47:08;;;;;;;9.50;9.20;;;12.90;99.90;;;;;;5045936;28;20238;-77
2023/08/30 03:49:36;;;;;;;9.80;9.50;;;12.90;99.90;;;;;;5049615;28;20286;-77
2023/08/30 03:52:04;;;;;;;9.50;9.20;;;13.00;99.90;;;;;;5051839;28;20212;-77
2023/08/30 03:54:31;;;;;;;9.43;9.13;;;13.00;99.90;;;;;;5042500;28;20230;-77
2023/08/30 03:56:58;;;;;;;9.70;9.40;;;13.00;99.90;;;;;;5041935;28;20242;-77
2023/08/30 03:59:27;;;;;;;9.70;9.40;;;13.00;99.90;;;;;;5038320;28;20230;-77
2023/08/30 04:01:55;;;;;;;9.40;9.10;;;13.10;99.90;;;;;;5037169;28;20223;-76
2023/08/30 04:04:22;;;;;;;9.30;9.00;;;13.10;99.90;;;;;;5037714;28;20234;-76
2023/08/30 04:06:49;;;;;;;9.10;8.80;;;13.10;99.90;;;;;;5037625;28;20759;-76
2023/08/30 04:09:16;;;;;;;9.20;8.90;;;13.10;99.90;;;;;;5037681;28;20291;-77
2023/08/30 04:11:44;;;;;;;9.17;8.87;;;13.20;99.90;;;;;;5037709;28;20232;-77
2023/08/30 04:14:11;;;;;;;9.30;9.00;;;13.20;99.90;;;;;;5037515;28;20231;-77
2023/08/30 04:16:38;;;;;;;9.57;9.27;;;13.20;99.90;;;;;;5037723;28;20394;-77
2023/08/30 04:19:06;;;;;;;9.70;9.40;;;13.20;99.90;;;;;;5037683;28;20236;-76
2023/08/30 04:21:33;;;;;;;10.10;9.80;;;13.20;99.90;;;;;;5036279;28;20240;-77
2023/08/30 04:24:00;;;;;;;9.53;9.23;;;13.20;99.90;;;;;;5037253;28;20232;-77
2023/08/30 04:26:27;;;;;;;9.60;9.30;;;13.20;99.90;;;;;;5043867;28;20239;-76
2023/08/30 04:28:54;;;;;;;9.83;9.53;;;13.20;99.90;;;;;;5040184;28;20215;-77
2023/08/30 04:31:21;;;;;;;9.70;9.40;;;13.10;99.90;;;;;;5037330;28;20326;-77
2023/08/30 04:33:48;;;;;;;9.67;9.37;;;13.10;99.90;;;;;;5037423;28;20235;-76
2023/08/30 04:36:17;;;;;;;9.40;9.10;;;13.10;99.90;;;;;;5036639;28;20290;-76
2023/08/30 04:38:56;;;;;;;9.90;9.60;;;13.10;99.90;;;;;;5134210;22;20233;-84
2023/08/30 04:41:24;;;;;;;9.77;9.47;;;13.20;99.90;;;;;;5123787;28;20217;-87
2023/08/30 04:46:33;;;;;;;9.70;9.40;;;13.20;99.90;;;;;;5119162;28;20706;-85
2023/08/30 04:49:02;;;;;;;9.50;9.20;;;13.20;99.90;;;;;;5121827;28;20293;-85
2023/08/30 04:54:28;;;;;;;9.50;9.20;;;13.20;99.90;;;;;;5121083;27;20224;-85
2023/08/30 04:56:56;;;;;;;9.30;9.00;;;13.10;99.90;;;;;;5121381;28;20290;-85
2023/08/30 04:59:36;;;;;;;9.40;9.10;;;13.20;99.90;;;;;;5121192;28;20260;-85
2023/08/30 05:02:04;;;;;;;9.20;8.90;;;13.20;99.90;;;;;;5120951;28;20229;-85
2023/08/30 05:04:43;;;;;;;9.20;8.90;;;13.20;99.90;;;;;;5121333;28;20228;-85
2023/08/30 05:10:08;;;;;;;8.60;8.40;;;13.20;99.90;;;;;;5121181;27;20224;-85
2023/08/30 05:12:37;;;;;;;8.20;8.00;;;13.30;99.90;;;;;;5120771;28;20228;-85
2023/08/30 05:15:06;;;;;;;8.60;8.40;;;13.30;99.90;;;;;;5122157;28;20235;-85
2023/08/30 05:17:46;;;;;;;9.07;8.77;;;13.30;99.90;;;;;;5108565;28;20233;-85
2023/08/30 05:20:14;;;;;;;9.20;8.90;;;13.30;99.90;;;;;;5101009;28;20312;-85
2023/08/30 05:22:46;;;;;;;9.20;8.90;;;13.30;99.90;;;;;;5099863;28;20221;-85
2023/08/30 05:25:13;;;;;;;9.17;8.87;;;13.30;99.90;;;;;;5100156;28;20240;-85
2023/08/30 05:27:52;;;;;;;9.20;8.90;;;13.30;99.90;;;;;;5100254;28;20248;-85
2023/08/30 05:30:21;;;;;;;8.70;8.50;;;13.30;99.90;;;;;;5100681;28;20237;-85
2023/08/30 05:32:59;;;;;;;9.10;8.80;;;13.40;99.90;;;;;;5099944;28;20226;-85
2023/08/30 05:35:38;;;;;;;8.93;8.63;;;13.50;99.90;;;;;;5100129;28;20312;-85
2023/08/30 05:38:08;;;;;;;8.80;8.60;;;13.50;99.90;;;;;;5100442;28;20260;-85
2023/08/30 05:40:36;;;;;;;8.70;8.50;;;13.60;99.90;;;;;;5119641;28;20225;-84
2023/08/30 05:43:05;;;;;;;8.67;8.47;;;13.50;99.90;;;;;;5119603;28;20236;-84
2023/08/30 05:45:44;;;;;;;8.70;8.50;;;13.50;99.90;;;;;;5119855;28;20272;-86
2023/08/30 05:48:13;;;;;;;8.23;8.03;;;13.60;99.90;;;;;;5131412;28;20237;-86
2023/08/30 05:53:23;;;;;;;8.47;8.27;;;13.60;99.90;;;;;;5122817;28;20220;-86
2023/08/30 05:55:51;;;;;;;8.70;8.50;;;13.70;99.90;;;;;;5121617;28;20221;-86
2023/08/30 05:58:18;;;;;;;9.25;8.95;;;13.70;99.90;;;;;;5119913;28;20411;-86
2023/08/30 06:00:45;;;;;;;9.10;8.80;;;13.80;99.90;;;;;;5120335;28;20260;-86
2023/08/30 06:03:12;;;;;;;9.20;8.90;;;13.90;99.90;;;;;;5120474;27;20225;-86
2023/08/30 06:05:43;;;;;;;8.63;8.43;;;13.90;99.90;;;;;;5119726;28;20286;-86
2023/08/30 06:08:11;;;;;;;8.50;8.30;;;14.00;99.90;;;;;;5119687;28;20228;-86
2023/08/30 06:10:43;;;;;;;8.43;8.23;;;14.00;99.90;;;;;;5119907;28;20235;-86
2023/08/30 06:13:10;;;;;;;8.70;8.50;;;14.00;99.90;;;;;;5119320;28;20216;-86
2023/08/30 06:15:38;;;;;;;8.95;8.70;;;14.10;99.90;;;;;;5119725;28;20224;-86
2023/08/30 06:18:06;;;;;;;8.52;8.32;;;14.20;99.90;;;;;;5118830;28;20225;-86
2023/08/30 06:20:34;;;;;;;8.00;7.80;;;14.30;99.90;;;;;;5119591;28;20229;-86
2023/08/30 06:23:05;;;;;;;8.23;8.02;;;14.30;99.90;;;;;;5119081;28;20245;-86
2023/08/30 06:25:39;;;;;;;8.23;8.02;;;14.40;99.90;;;;;;5120549;28;20228;-84
2023/08/30 06:28:08;;;;;;;8.10;7.90;;;14.40;99.90;;;;;;5127919;28;20234;-87
2023/08/30 06:30:37;;;;;;;8.43;8.23;;;14.50;99.90;;;;;;5120353;28;20236;-86
2023/08/30 06:33:17;;;;;;;9.20;8.90;;;14.60;99.90;;;;;;5120813;28;20224;-86
2023/08/30 06:36:04;;;;;;;;;;;;;;;;;;;;;
2023/08/30 06:38:37;;;;;;;8.40;8.20;;;14.70;99.90;;;;;;5118756;28;20293;-86
2023/08/30 06:41:06;;;;;;;9.10;8.80;;;14.70;99.90;;;;;;5118047;28;20221;-85
2023/08/30 06:43:33;;;;;;;8.68;8.48;;;14.70;99.90;;;;;;5119676;28;20232;-86
2023/08/30 06:46:01;;;;;;;8.25;8.05;;;14.80;99.90;;;;;;5121466;28;20317;-85
2023/08/30 06:48:28;;;;;;;8.43;8.23;;;14.90;99.90;;;;;;5123217;28;20728;-85
2023/08/30 06:51:01;;;;;;;8.63;8.43;;;14.90;99.90;;;;;;5122183;28;20232;-86
2023/08/30 06:53:31;;;;;;;8.95;8.70;;;14.90;99.90;;;;;;5122806;28;20274;-85
2023/08/30 06:56:02;;;;;;;9.23;8.93;;;14.90;99.90;;;;;;5124456;27;20292;-85
2023/08/30 06:58:31;;;;;;;9.27;8.98;;;14.90;99.90;;;;;;5122616;28;20286;-86
2023/08/30 07:00:59;;;;;;;9.40;9.10;;;15.00;99.90;;;;;;5122155;28;20231;-85
2023/08/30 07:06:30;;;;;;;9.40;9.10;;;15.10;99.90;;;;;;5121773;28;20247;-86
2023/08/30 07:08:58;;;;;;;9.40;9.10;;;15.20;99.90;;;;;;5135220;27;20244;-84
2023/08/30 07:11:37;;;;;;;9.77;9.48;;;15.20;99.90;;;;;;5141357;27;20213;-84
2023/08/30 07:14:07;;;;;;;9.50;9.20;;;15.20;99.90;;;;;;5142069;28;20232;-84
2023/08/30 07:16:34;;;;;;;9.10;8.80;;;15.30;99.90;;;;;;5141552;27;20289;-84
2023/08/30 07:19:14;;;;;;;9.40;9.10;;;15.30;99.90;;;;;;5132352;28;20323;-86
2023/08/30 07:21:42;;;;;;;9.40;9.10;;;15.40;99.90;;;;;;5106968;28;20236;-84
2023/08/30 07:24:22;;;;;;;9.52;9.23;;;15.50;99.90;;;;;;5102451;27;20209;-84
2023/08/30 07:29:30;;;;;;;9.43;9.13;;;15.70;99.90;;;;;;5068508;22;20314;-85
2023/08/30 07:34:38;;;;;;;9.20;8.90;;;15.80;99.90;;;;;;5060698;28;20704;-85
2023/08/30 07:37:07;;;;;;;9.50;9.20;;;15.80;99.90;;;;;;5061993;28;20311;-86
2023/08/30 07:39:36;;;;;;;9.80;9.50;;;15.80;99.90;;;;;;5072018;28;20316;-86
2023/08/30 07:42:06;;;;;;;9.60;9.30;;;15.90;99.90;;;;;;5069467;28;20223;-85
2023/08/30 07:47:32;;;;;;;10.10;9.80;;;16.00;99.90;;;;;;5079238;28;20248;-88
2023/08/30 07:50:00;;;;;;;10.13;9.82;;;16.10;99.90;;;;;;5062176;28;20244;-87
2023/08/30 07:52:39;;;;;;;10.25;9.95;;;16.30;99.90;;;;;;5061620;28;20233;-86
2023/08/30 07:55:09;;;;;;;10.20;9.90;;;16.40;99.90;;;;;;5061610;28;20239;-84
2023/08/30 07:57:37;;;;;;;10.10;9.80;;;16.50;99.90;;;;;;5061213;28;20231;-85
2023/08/30 08:00:16;;;;;;;10.45;10.15;;;16.60;99.90;;;;;;5061057;28;20286;-85
2023/08/30 08:02:55;;;;;;;10.40;10.10;;;16.80;99.90;;;;;;5060872;28;20289;-84
2023/08/30 08:05:23;;;;;;;10.23;9.93;;;17.00;99.90;;;;;;5060586;28;20267;-85
2023/08/30 08:07:53;;;;;;;10.10;9.80;;;17.10;99.90;;;;;;5060345;28;20298;-85
2023/08/30 08:10:32;;;;;;;10.50;10.20;;;17.30;99.90;;;;;;5060816;28;20325;-84
2023/08/30 08:13:00;;;;;;;10.90;10.60;;;17.40;99.90;;;;;;5060757;28;20775;-85
2023/08/30 08:15:33;;;;;;;10.55;10.25;;;17.50;99.90;;;;;;5060395;28;20309;-85
2023/08/30 08:18:01;;;;;;;10.43;10.13;;;17.50;99.90;;;;;;5060358;28;20238;-84
2023/08/30 08:20:30;;;;;;;10.60;10.30;;;17.60;99.90;;;;;;5061736;28;20227;-84
2023/08/30 08:22:58;;;;;;;10.65;10.35;;;17.60;99.90;;;;;;5060614;28;20234;-85
2023/08/30 08:25:38;;;;;;;10.70;10.40;;;17.70;99.90;;;;;;5060713;28;20232;-84
2023/08/30 08:28:06;;;;;;;10.60;10.30;;;17.60;99.90;;;;;;5060262;28;20296;-84
2023/08/30 08:30:39;;;;;;;10.40;10.10;;;17.60;99.90;;;;;;5060495;28;20239;-84
2023/08/30 08:33:06;;;;;;;10.10;9.80;;;17.60;99.90;;;;;;5062152;28;20268;-85
2023/08/30 08:35:34;;;;;;;10.23;9.93;;;17.60;99.90;;;;;;5061538;28;20239;-84
2023/08/30 08:40:42;;;;;;;10.05;9.75;;;17.50;99.90;;;;;;5061422;28;20218;-84
2023/08/30 08:43:12;;;;;;;10.00;9.70;;;17.60;99.90;;;;;;5063007;28;20333;-83
2023/08/30 08:48:30;;;;;;;10.10;9.80;;;18.10;99.90;;;;;;5061255;28;20234;-83
2023/08/30 08:50:58;;;;;;;10.50;10.20;;;18.40;99.90;;;;;;5061131;28;20353;-83
2023/08/30 08:53:37;;;;;;;10.85;10.55;;;18.40;99.90;;;;;;5059510;28;20232;-83
2023/08/30 08:56:08;;;;;;;10.90;10.60;;;18.60;99.90;;;;;;5060698;28;20221;-85
2023/08/30 08:58:37;;;;;;;11.10;10.80;;;18.90;99.90;;;;;;5060453;28;20238;-83
2023/08/30 09:01:07;;;;;;;11.02;10.73;;;19.10;99.90;;;;;;5060201;28;20234;-84
2023/08/30 09:03:35;;;;;;;10.90;10.60;;;19.20;99.90;;;;;;5059703;28;20277;-84
2023/08/30 09:06:04;;;;;;;10.10;9.80;;;19.40;99.90;;;;;;5060325;28;20234;-85
2023/08/30 09:08:32;;;;;;;9.65;9.35;;;19.40;99.90;;;;;;5051929;28;20254;-86
2023/08/30 09:11:11;;;;;;;9.57;9.27;;;19.30;99.90;;;;;;5060362;28;20235;-86
2023/08/30 09:13:40;;;;;;;9.70;9.40;;;19.40;99.90;;;;;;5060598;28;20232;-85
2023/08/30 09:16:27;;;;;;;9.70;9.40;;;19.40;99.90;;;;;;5061704;28;20249;-86
2023/08/30 09:21:52;;;;;;;10.38;10.07;;;19.40;99.90;;;;;;5059834;28;20248;-83
2023/08/30 09:24:22;;;;;;;10.30;10.00;;;19.50;99.90;;;;;;5075354;28;20215;-85
2023/08/30 09:29:43;;;;;;;10.23;9.93;;;19.40;99.90;;;;;;5177609;27;1281054;-86
2023/08/30 09:32:10;;;;;;;10.30;10.00;;;19.50;99.90;;;;;;5195247;27;20234;-86
2023/08/30 09:34:48;;;;;;;10.13;9.82;;;19.60;99.90;;;;;;5191388;27;20282;-85
2023/08/30 09:37:34;;;;;;;10.15;9.85;;;19.60;99.90;;;;;;5180742;27;20222;-84
2023/08/30 09:40:13;;;;;;;9.90;9.60;;;19.70;99.90;;;;;;5159944;27;20309;-84
2023/08/30 09:42:43;;;;;;;10.20;9.90;;;19.60;99.90;;;;;;5160049;27;20223;-82
2023/08/30 09:48:16;;;;;;;10.10;9.80;;;19.60;99.90;;;;;;5158525;27;20268;-82
2023/08/30 09:50:46;;;;;;;9.90;9.60;;;19.60;99.90;;;;;;5159186;27;20234;-82
2023/08/30 09:53:18;;;;;;;9.75;9.45;;;19.60;99.90;;;;;;5159000;27;20227;-83
2023/08/30 09:55:46;;;;;;;10.00;9.70;;;19.70;99.90;;;;;;5159910;27;20231;-83
2023/08/30 09:58:15;;;;;;;10.25;9.95;;;19.80;99.90;;;;;;5158573;27;20231;-81
2023/08/30 10:01:02;;;;;;;10.10;9.80;;;19.80;99.90;;;;;;5158520;27;20235;-83
2023/08/30 10:03:32;;;;;;;10.00;9.70;;;19.80;99.90;;;;;;5158753;27;20232;-83
2023/08/30 10:06:04;;;;;;;9.98;9.68;;;19.80;99.90;;;;;;5160812;27;20230;-83
2023/08/30 10:08:33;;;;;;;9.65;9.35;;;19.80;99.90;;;;;;5158226;27;20228;-84
2023/08/30 10:11:01;;;;;;;9.50;9.20;;;19.90;99.90;;;;;;5158408;27;20308;-84
2023/08/30 10:13:30;;;;;;;9.77;9.48;;;19.90;99.90;;;;;;5158068;27;20283;-85
2023/08/30 10:16:16;;;;;;;9.52;9.23;;;19.90;99.90;;;;;;5155387;27;20231;-85
2023/08/30 10:18:47;;;;;;;9.40;9.10;;;20.00;99.90;;;;;;5158314;27;20227;-84
2023/08/30 10:21:15;;;;;;;9.40;9.10;;;20.20;99.90;;;;;;5158378;27;20223;-86
2023/08/30 10:23:43;;;;;;;9.10;8.80;;;20.40;99.90;;;;;;5158277;27;20228;-84
2023/08/30 10:26:18;;;;;;;10.00;9.70;;;20.50;99.90;;;;;;5158683;27;20255;-85
2023/08/30 10:28:46;;;;;;;9.98;9.68;;;20.60;99.90;;;;;;5157249;27;20233;-84
2023/08/30 10:34:09;;;;;;;9.95;9.65;;;20.70;99.90;;;;;;5155607;27;20230;-85
2023/08/30 10:36:59;;;;;;;9.93;9.63;;;20.70;99.90;;;;;;5158131;27;20230;-85
2023/08/30 10:39:36;;;;;;;10.30;10.00;;;20.80;99.90;;;;;;5139279;22;20299;-80
2023/08/30 10:42:10;;;;;;;10.32;10.02;;;21.00;99.90;;;;;;5100712;28;20241;-79
2023/08/30 10:44:48;;;;;;;10.40;10.10;;;21.10;99.90;;;;;;5107269;28;20304;-78
2023/08/30 10:47:21;;;;;;;10.40;10.10;;;21.20;99.90;;;;;;5100689;28;20324;-78
2023/08/30 10:49:49;;;;;;;10.43;10.13;;;21.40;99.90;;;;;;5085879;28;20253;-79
2023/08/30 10:52:16;;;;;;;10.40;10.10;;;21.60;99.90;;;;;;5084087;28;20233;-79
2023/08/30 10:54:44;;;;;;;10.30;10.00;;;21.80;99.90;;;;;;5086552;28;20303;-79
2023/08/30 10:57:16;;;;;;;10.45;10.15;;;22.20;99.90;;;;;;5086837;28;20233;-81
2023/08/30 11:00:05;;;;;;;10.25;9.95;;;22.40;99.90;;;;;;5084476;28;20242;-80
2023/08/30 11:02:34;;;;;;;10.38;10.07;;;22.50;99.90;;;;;;5084454;28;20230;-80
2023/08/30 11:05:03;;;;;;;10.30;10.00;;;22.20;99.90;;;;;;5087241;28;20241;-80
2023/08/30 11:07:32;;;;;;;10.18;9.88;;;22.10;99.90;;;;;;5092158;28;20225;-81
2023/08/30 11:10:00;;;;;;;10.40;10.10;;;22.20;99.90;;;;;;5093637;28;20286;-79
2023/08/30 11:12:29;;;;;;;10.60;10.30;;;22.40;99.90;;;;;;5091633;28;20297;-80
2023/08/30 11:14:57;;;;;;;10.50;10.20;;;22.70;99.90;;;;;;5088285;28;20252;-80
2023/08/30 11:17:24;;;;;;;10.60;10.30;;;23.00;99.90;;;;;;5086126;28;20321;-80
2023/08/30 11:19:59;;;;;;;10.50;10.20;;;23.00;99.90;;;;;;5087285;28;20329;-80
2023/08/30 11:22:27;;;;;;;10.50;10.20;;;23.10;99.90;;;;;;5085953;28;20268;-80
2023/08/30 11:24:55;;;;;;;10.70;10.40;;;23.00;99.90;;;;;;5085164;28;20234;-80
2023/08/30 11:27:22;;;;;;;10.52;10.23;;;22.90;99.90;;;;;;5083749;28;20238;-79
2023/08/30 11:29:49;;;;;;;10.32;10.02;;;22.50;99.90;;;;;;5082840;28;20316;-80
2023/08/30 11:32:18;;;;;;;10.20;9.90;;;22.10;99.90;;;;;;5082915;28;20264;-80
2023/08/30 11:34:45;;;;;;;10.63;10.32;;;21.50;99.90;;;;;;5081148;28;20234;-80
2023/08/30 11:37:15;;;;;;;10.40;10.10;;;21.50;99.90;;;;;;5080944;28;20241;-80
2023/08/30 11:39:44;;;;;;;10.45;10.15;;;21.50;99.90;;;;;;5087498;28;20238;-80
2023/08/30 11:42:11;;;;;;;9.90;9.60;;;21.60;99.90;;;;;;5090260;28;20226;-80
2023/08/30 11:44:39;;;;;;;9.80;9.50;;;21.60;99.90;;;;;;5088575;28;20306;-81
2023/08/30 11:47:09;;;;;;;9.60;9.30;;;21.60;99.90;;;;;;5087970;28;21129;-81
2023/08/30 11:49:38;;;;;;;9.80;9.50;;;21.40;99.90;;;;;;5086851;28;20238;-81
2023/08/30 11:52:07;;;;;;;9.90;9.60;;;21.20;99.90;;;;;;5085361;28;20248;-81
2023/08/30 11:54:38;;;;;;;10.05;9.75;;;20.90;99.90;;;;;;5087592;28;20234;-81
2023/08/30 11:57:06;;;;;;;10.02;9.73;;;20.80;99.90;;;;;;5085833;28;20222;-80
2023/08/30 11:59:36;;;;;;;9.85;9.55;;;20.70;99.90;;;;;;5083944;28;20239;-81
2023/08/30 12:02:04;;;;;;;9.80;9.50;;;20.60;99.90;;;;;;5086081;28;20218;-82
2023/08/30 12:04:33;;;;;;;9.65;9.35;;;20.50;99.90;;;;;;5087124;28;20290;-81
2023/08/30 12:07:04;;;;;;;9.80;9.50;;;20.30;99.90;;;;;;5086135;28;20234;-80
2023/08/30 12:09:32;;;;;;;10.02;9.73;;;20.30;99.90;;;;;;5088534;28;20977;-81
2023/08/30 12:12:10;;;;;;;9.90;9.60;;;20.20;99.90;;;;;;5085929;28;20245;-80
2023/08/30 12:14:38;;;;;;;9.90;9.60;;;20.30;99.90;;;;;;5083907;28;20240;-79
2023/08/30 12:17:07;;;;;;;9.60;9.30;;;20.50;99.90;;;;;;5091685;28;20214;-79
2023/08/30 12:19:35;;;;;;;9.82;9.52;;;20.50;99.90;;;;;;5088100;28;20678;-78
2023/08/30 12:22:06;;;;;;;9.70;9.40;;;20.60;99.90;;;;;;5078887;28;20336;-79
2023/08/30 12:24:43;;;;;;;10.35;10.05;;;20.60;99.90;;;;;;5080267;28;20230;-79
2023/08/30 12:27:13;;;;;;;9.80;9.50;;;20.90;99.90;;;;;;5081597;28;20237;-80
2023/08/30 12:29:41;;;;;;;10.20;9.90;;;21.20;99.90;;;;;;5081912;28;20257;-80
2023/08/30 12:32:08;;;;;;;10.20;9.90;;;21.70;99.90;;;;;;5082624;28;20241;-80
2023/08/30 12:34:37;;;;;;;10.15;9.85;;;22.10;99.90;;;;;;5088203;28;20230;-80
2023/08/30 12:37:04;;;;;;;10.15;9.85;;;22.30;99.90;;;;;;5085429;28;20223;-81
2023/08/30 12:39:31;;;;;;;10.07;9.77;;;22.30;99.90;;;;;;5083344;28;20276;-81
2023/08/30 12:41:59;;;;;;;10.18;9.88;;;22.20;99.90;;;;;;5083559;28;20348;-81
2023/08/30 12:44:27;;;;;;;10.10;9.80;;;21.90;99.90;;;;;;5087972;28;20230;-81
2023/08/30 12:46:54;;;;;;;9.85;9.55;;;21.80;99.90;;;;;;5086738;28;20257;-81
2023/08/30 12:49:21;;;;;;;10.20;9.90;;;21.60;99.90;;;;;;5077970;28;20281;-81
2023/08/30 12:51:49;;;;;;;10.30;10.00;;;21.40;99.90;;;;;;5083213;28;20245;-81
2023/08/30 12:54:16;;;;;;;10.15;9.85;;;21.30;99.90;;;;;;5085050;28;20299;-80
2023/08/30 12:56:43;;;;;;;9.90;9.60;;;21.20;99.90;;;;;;5092020;28;20218;-81
2023/08/30 12:59:10;;;;;;;9.85;9.55;;;21.10;99.90;;;;;;5095952;28;20238;-78
2023/08/30 13:01:38;;;;;;;10.07;9.77;;;21.10;99.90;;;;;;5092985;28;20316;-79
2023/08/30 13:04:06;;;;;;;10.15;9.85;;;21.10;99.90;;;;;;5093869;28;20241;-78
2023/08/30 13:06:33;;;;;;;10.48;10.18;;;21.10;99.90;;;;;;5090878;28;20226;-79
2023/08/30 13:09:00;;;;;;;10.38;10.07;;;21.10;99.90;;;;;;5085136;28;20830;-79
2023/08/30 13:11:28;;;;;;;10.25;9.95;;;21.00;99.90;;;;;;5082437;28;20234;-79
2023/08/30 13:13:57;;;;;;;10.35;10.05;;;20.90;99.90;;;;;;5081729;28;20257;-79
2023/08/30 13:16:23;;;;;;;10.43;10.13;;;20.90;99.90;;;;;;5083022;28;20378;-79
2023/08/30 13:18:52;;;;;;;10.30;10.00;;;20.90;99.90;;;;;;5081354;28;20244;-79
2023/08/30 13:21:19;;;;;;;10.27;9.98;;;20.90;99.90;;;;;;5083406;28;20228;-79
2023/08/30 13:23:46;;;;;;;10.10;9.80;;;21.20;99.90;;;;;;5081228;28;20230;-79
2023/08/30 13:26:13;;;;;;;10.38;10.07;;;21.50;99.90;;;;;;5081919;28;20268;-79
2023/08/30 13:28:40;;;;;;;9.82;9.52;;;22.00;99.90;;;;;;5087022;28;20230;-79
2023/08/30 13:31:10;;;;;;;10.40;10.10;;;22.40;99.90;;;;;;5079831;28;20280;-79
2023/08/30 13:33:37;;;;;;;10.40;10.10;;;22.80;99.90;;;;;;5078955;28;20237;-79
2023/08/30 13:36:08;;;;;;;10.40;10.10;;;23.00;99.90;;;;;;5085184;28;20252;-78